Eakly, Oklahoma
Current Conditions -  °F | °C
As of 8:35 AM on Thursday 23 Oct 2014 (Local Time) from KOJA Reporting Station
Haze Haze  
Wind Chill: 61°   Ceiling: 4300
Heat Index: 61°   Visibility: 4mi
Dew Point: 59°   Wind: 5mph
Humidity: 94%   Direction: 160°SSE
Pressure: 30.11"   Gusts: NA
Location:  35.31°N, 98.56°W
Report Text: KOJA 231335Z AUTO 16004KT 4SM BR OVC043 16/15 A3011 RMK AO2
Loading
Personal Weather Stations






























Interactive Weather Map
Tropical Storm Tracking
New forecast layout! Learn more

10-Day Weather Forecast

Advertisements
Track Severe Weather on mobile